Time;durP1;ratioP1;P1;durP2;ratioP2;P2;SDS_P1;SDS_P2;PMS_P1;PMS_P2;Temp;Humidity;BMP_temperature;BMP_pressure;BME280_temperature;BME280_humidity;BME280_pressure;Samples;Min_cycle;Max_cycle;Signal;HPM_P1;HPM_P2
2023/05/12 00:04:05;;;;;;;6.47;5.88;;;;;;;14.57;93.24;99888.13;10172786;28;20326;-70
2023/05/12 00:09:08;;;;;;;6.20;5.60;;;;;;;14.54;93.76;99891.09;10170543;28;20050;-70
2023/05/12 00:14:09;;;;;;;6.22;5.63;;;;;;;14.52;94.08;99898.44;10173071;28;20541;-70
2023/05/12 00:19:11;;;;;;;5.63;5.10;;;;;;;14.53;95.09;99895.59;10165975;28;20083;-72
2023/05/12 00:24:13;;;;;;;5.30;4.80;;;;;;;14.54;94.46;99904.50;10166780;28;20143;-70
2023/05/12 00:29:15;;;;;;;4.93;4.43;;;;;;;14.53;95.26;99892.09;10172641;28;20142;-71
2023/05/12 00:34:16;;;;;;;4.75;4.35;;;;;;;14.53;94.57;99892.09;10171936;28;20132;-68
2023/05/12 00:39:17;;;;;;;4.07;3.78;;;;;;;14.48;95.11;99885.38;10177735;28;20071;-74
2023/05/12 00:44:19;;;;;;;5.20;4.80;;;;;;;14.48;94.76;99885.38;10192316;28;20083;-70
2023/05/12 00:49:20;;;;;;;5.15;4.65;;;;;;;14.50;94.55;99883.38;10174515;28;20138;-71
2023/05/12 00:54:22;;;;;;;5.22;4.43;;;;;;;14.40;95.05;99877.28;10171275;28;20103;-69
2023/05/12 00:59:23;;;;;;;2.75;2.50;;;;;;;14.38;94.73;99867.72;10173298;28;20177;-68
2023/05/12 01:04:25;;;;;;;3.72;3.28;;;;;;;14.38;94.35;99879.31;10174293;28;20047;-70
2023/05/12 01:09:26;;;;;;;3.25;2.95;;;;;;;14.35;95.22;99884.94;10164953;28;20052;-74
2023/05/12 01:14:28;;;;;;;3.00;2.75;;;;;;;14.27;95.47;99890.25;10187911;28;20052;-72
2023/05/12 01:19:52;;;;;;;3.60;3.08;;;;;;;14.21;96.81;99888.22;10204452;28;20240;-75
2023/05/12 01:24:56;;;;;;;;;;;;;;;14.24;96.88;99901.28;10215293;28;20119;-74
2023/05/12 01:30:00;;;;;;;4.25;3.33;;;;;;;14.29;96.30;99902.50;10204250;28;19926;-71
2023/05/12 01:35:01;;;;;;;3.55;3.22;;;;;;;14.31;96.74;99910.38;10207669;28;20530;-74
2023/05/12 01:40:03;;;;;;;3.42;3.10;;;;;;;14.25;95.92;99908.31;10217902;28;20079;-75
2023/05/12 01:45:06;;;;;;;3.35;2.95;;;;;;;14.19;95.33;99922.34;10183447;28;20934;-70
2023/05/12 01:50:08;;;;;;;3.42;3.05;;;;;;;14.15;95.26;99919.94;10170341;28;20056;-70
2023/05/12 01:55:09;;;;;;;3.00;2.70;;;;;;;14.09;94.84;99917.88;10176620;28;20582;-70
2023/05/12 02:00:11;;;;;;;4.50;3.63;;;;;;;14.07;95.30;99925.22;10171910;28;20065;-71
2023/05/12 02:05:13;;;;;;;5.82;5.32;;;;;;;14.15;95.49;99937.84;10175006;28;20605;-73
2023/05/12 02:10:14;;;;;;;7.70;7.00;;;;;;;14.11;95.65;99926.63;10162587;28;20071;-70
2023/05/12 02:15:16;;;;;;;7.38;6.68;;;;;;;14.10;96.30;99930.28;10165547;28;20224;-72
2023/05/12 02:20:17;;;;;;;4.95;4.55;;;;;;;14.12;95.28;99933.63;10167146;28;20789;-69
2023/05/12 02:25:20;;;;;;;2.97;1.90;;;;;;;14.12;94.12;99944.34;10163801;29;20245;-73
2023/05/12 02:30:21;;;;;;;1.90;1.80;;;;;;;14.05;93.09;99945.09;10170202;28;20506;-72
2023/05/12 02:35:23;;;;;;;1.52;1.20;;;;;;;13.98;93.64;99942.22;10169041;28;20138;-75
2023/05/12 02:40:24;;;;;;;0.93;0.60;;;;;;;13.92;92.82;99950.88;10166240;28;20052;-71
2023/05/12 02:45:26;;;;;;;0.93;0.63;;;;;;;13.90;92.44;99944.81;10167482;28;20115;-74
2023/05/12 02:50:27;;;;;;;0.88;0.68;;;;;;;13.84;93.60;99943.59;10192788;28;20347;-74
2023/05/12 02:55:29;;;;;;;1.00;0.70;;;;;;;13.86;94.44;99944.28;10183400;28;20417;-71
2023/05/12 03:00:30;;;;;;;0.93;0.80;;;;;;;13.92;94.28;99942.84;10172824;28;20055;-73
2023/05/12 03:05:31;;;;;;;0.70;0.65;;;;;;;13.99;94.14;99949.25;10171230;29;20067;-72
2023/05/12 03:10:33;;;;;;;2.10;1.08;;;;;;;13.96;94.09;99944.19;10174082;28;20051;-71
2023/05/12 03:15:35;;;;;;;1.88;1.00;;;;;;;13.97;94.41;99946.72;10170207;28;20170;-70
2023/05/12 03:20:36;;;;;;;1.13;1.02;;;;;;;14.01;94.70;99952.63;10174784;28;20679;-74
2023/05/12 03:25:38;;;;;;;1.80;1.70;;;;;;;13.94;94.59;99941.66;10171325;29;20115;-71
2023/05/12 03:30:39;;;;;;;2.42;1.30;;;;;;;14.00;94.70;99947.41;10187951;28;20885;-71
2023/05/12 03:35:41;;;;;;;1.63;1.52;;;;;;;14.03;94.11;99949.78;10200696;28;20084;-75
2023/05/12 03:40:42;;;;;;;2.00;1.80;;;;;;;14.03;94.15;99947.94;10184143;28;20047;-72
2023/05/12 03:45:44;;;;;;;2.53;1.67;;;;;;;14.02;93.88;99943.59;10175749;28;20079;-71
2023/05/12 03:50:45;;;;;;;2.33;1.80;;;;;;;14.00;93.76;99934.03;10177610;28;20066;-73
2023/05/12 03:55:48;;;;;;;3.10;1.83;;;;;;;14.02;94.00;99935.56;10178429;28;20571;-71
2023/05/12 04:00:50;;;;;;;2.30;2.10;;;;;;;14.02;93.57;99937.38;10176342;28;20476;-72
2023/05/12 04:05:57;;;;;;;2.58;1.98;;;;;;;14.03;93.65;99945.25;10176255;28;20109;-70
2023/05/12 04:11:00;;;;;;;3.17;1.90;;;;;;;14.02;93.57;99948.09;10173491;28;20052;-71
2023/05/12 04:16:01;;;;;;;3.22;2.40;;;;;;;14.02;94.02;99951.63;10172459;28;20070;-70
2023/05/12 04:21:03;;;;;;;3.10;2.83;;;;;;;14.04;93.71;99954.16;10173225;28;20047;-70
2023/05/12 04:26:04;;;;;;;3.42;3.13;;;;;;;14.06;92.95;99966.38;10167621;28;20118;-73
2023/05/12 04:31:05;;;;;;;4.43;3.80;;;;;;;14.04;92.23;99962.19;10169798;28;20059;-71
2023/05/12 04:36:07;;;;;;;4.10;3.30;;;;;;;14.04;92.59;99965.69;10170457;28;20056;-73
2023/05/12 04:41:08;;;;;;;3.45;3.20;;;;;;;14.05;92.87;99964.69;10168326;28;20051;-74
2023/05/12 04:46:10;;;;;;;3.70;3.40;;;;;;;14.07;92.60;99973.41;10173696;28;20048;-74
2023/05/12 04:51:11;;;;;;;5.60;3.50;;;;;;;14.07;91.60;99973.41;10173693;28;20724;-72
2023/05/12 04:56:12;;;;;;;6.38;3.17;;;;;;;14.08;92.36;99983.13;10166762;28;20059;-72
2023/05/12 05:01:14;;;;;;;4.03;3.60;;;;;;;14.13;92.99;99993.38;10153289;28;20059;-76
2023/05/12 05:06:16;;;;;;;4.15;3.85;;;;;;;14.16;92.04;99998.41;10156065;28;20122;-74
2023/05/12 05:11:17;;;;;;;3.30;3.00;;;;;;;14.11;92.26;99998.88;10151121;29;20385;-74
2023/05/12 05:16:19;;;;;;;4.95;3.95;;;;;;;14.12;91.43;99997.03;10156095;28;20411;-75
2023/05/12 05:21:21;;;;;;;3.08;2.78;;;;;;;14.13;89.78;100004.91;10149722;28;20066;-74
2023/05/12 05:26:23;;;;;;;4.80;3.55;;;;;;;14.15;90.79;100018.97;10153199;28;20902;-73
2023/05/12 05:31:27;;;;;;;4.68;3.40;;;;;;;14.15;89.89;100018.97;10171877;28;20055;-76
2023/05/12 05:36:29;;;;;;;4.50;4.17;;;;;;;14.11;90.37;100014.94;10201347;28;20138;-73
2023/05/12 05:41:32;;;;;;;5.32;3.53;;;;;;;14.15;90.66;100024.31;10195704;28;20072;-75
2023/05/12 05:46:33;;;;;;;6.55;3.78;;;;;;;14.21;90.67;100022.03;10165875;28;20048;-72
2023/05/12 05:51:34;;;;;;;3.72;3.40;;;;;;;14.20;89.88;100033.75;10147417;28;20072;-72
2023/05/12 05:56:36;;;;;;;4.20;3.80;;;;;;;14.22;89.56;100021.06;10144797;28;20467;-72
2023/05/12 06:01:37;;;;;;;5.38;4.07;;;;;;;14.26;89.86;100027.78;10147198;28;20422;-72
2023/05/12 06:06:39;;;;;;;5.05;3.28;;;;;;;14.30;89.46;100038.03;10151992;28;20079;-72
2023/05/12 06:11:41;;;;;;;3.35;3.05;;;;;;;14.35;89.06;100053.63;10187054;28;20062;-72
2023/05/12 06:16:42;;;;;;;4.18;3.22;;;;;;;14.29;88.91;100051.56;10149124;28;20051;-74
2023/05/12 06:21:44;;;;;;;5.28;4.22;;;;;;;14.31;89.31;100061.13;10144702;28;20139;-76
2023/05/12 06:26:45;;;;;;;4.50;3.92;;;;;;;14.29;88.69;100063.13;10143115;28;20758;-76
2023/05/12 06:31:47;;;;;;;4.07;3.70;;;;;;;14.36;89.81;100071.38;10138751;28;20141;-73
2023/05/12 06:36:48;;;;;;;4.55;3.50;;;;;;;14.38;89.15;100072.09;10143606;28;20062;-73
2023/05/12 06:41:50;;;;;;;3.47;3.17;;;;;;;14.40;88.85;100064.72;10142902;28;20055;-73
2023/05/12 06:46:51;;;;;;;4.00;3.50;;;;;;;14.49;88.93;100069.16;10147414;28;20055;-74
2023/05/12 06:51:53;;;;;;;5.43;3.50;;;;;;;14.58;88.87;100071.94;10152825;28;20067;-72
2023/05/12 06:56:54;;;;;;;3.97;2.95;;;;;;;14.62;87.84;100066.16;10140792;28;20142;-71
2023/05/12 07:01:55;;;;;;;6.05;3.78;;;;;;;14.71;87.35;100069.72;10140837;28;20060;-71
2023/05/12 07:06:57;;;;;;;4.97;3.67;;;;;;;14.69;86.45;100076.25;10139272;28;20071;-72
2023/05/12 07:11:59;;;;;;;3.58;3.28;;;;;;;14.72;87.41;100083.97;10138960;28;20427;-71
2023/05/12 07:17:00;;;;;;;3.22;2.92;;;;;;;14.66;87.09;100080.06;10140287;28;20240;-73
2023/05/12 07:22:02;;;;;;;4.05;3.65;;;;;;;14.65;87.32;100081.03;10138946;28;20677;-71
2023/05/12 07:27:04;;;;;;;3.08;2.55;;;;;;;14.71;86.28;100082.28;10136367;28;20075;-71
2023/05/12 07:32:06;;;;;;;3.72;3.28;;;;;;;14.73;87.09;100082.97;10136374;28;21129;-73
2023/05/12 07:37:07;;;;;;;3.65;3.10;;;;;;;14.76;87.11;100096.06;10132137;28;20137;-71
2023/05/12 07:42:09;;;;;;;3.90;3.60;;;;;;;14.78;88.65;100094.88;10139187;28;20052;-73
2023/05/12 07:47:11;;;;;;;3.45;3.15;;;;;;;14.77;88.33;100087.00;10145575;28;20680;-73
2023/05/12 07:52:12;;;;;;;3.95;3.30;;;;;;;14.74;86.89;100082.81;10148007;28;20062;-72
2023/05/12 07:57:14;;;;;;;4.03;3.47;;;;;;;14.76;86.59;100082.66;10149276;28;20063;-72
2023/05/12 08:02:16;;;;;;;5.13;3.28;;;;;;;14.83;86.45;100086.38;10146791;28;20404;-70
2023/05/12 08:07:17;;;;;;;3.92;3.03;;;;;;;14.92;86.09;100074.75;10143284;28;20052;-72
2023/05/12 08:12:19;;;;;;;7.85;6.60;;;;;;;15.03;86.22;100082.53;10141773;28;20085;-72
2023/05/12 08:17:20;;;;;;;3.60;3.30;;;;;;;15.12;85.86;100086.13;10141778;28;20052;-73
2023/05/12 08:22:22;;;;;;;5.13;3.58;;;;;;;15.19;84.81;100087.16;10150177;28;20066;-72
2023/05/12 08:27:23;;;;;;;4.15;3.15;;;;;;;15.33;84.75;100076.88;10135700;28;20060;-71
2023/05/12 08:32:24;;;;;;;4.43;3.63;;;;;;;15.47;84.87;100076.25;10145362;28;20643;-72
2023/05/12 08:37:26;;;;;;;4.70;2.97;;;;;;;15.60;83.83;100077.66;10144255;28;20052;-72
2023/05/12 08:42:41;;;;;;;3.45;2.97;;;;;;;15.73;83.41;100083.41;10141258;28;20048;-71
2023/05/12 08:47:44;;;;;;;3.17;2.88;;;;;;;15.73;81.35;100080.72;10141851;28;20535;-71
2023/05/12 08:52:47;;;;;;;3.80;3.05;;;;;;;15.79;81.58;100087.34;10139336;28;21128;-71
2023/05/12 08:57:49;;;;;;;3.50;2.92;;;;;;;15.80;81.02;100089.84;10140687;28;20060;-72
2023/05/12 09:02:51;;;;;;;5.97;3.20;;;;;;;15.87;81.41;100082.00;10144156;28;20056;-71
2023/05/12 09:07:56;;;;;;;3.65;3.00;;;;;;;15.93;80.17;100085.88;10145760;28;20162;-71
2023/05/12 09:13:02;;;;;;;3.60;3.28;;;;;;;16.01;79.80;100085.91;10143823;28;20134;-73
2023/05/12 09:18:04;;;;;;;4.28;3.47;;;;;;;16.05;80.84;100082.75;10142057;28;20071;-71
2023/05/12 09:23:19;;;;;;;4.80;3.50;;;;;;;16.16;80.75;100084.28;10141964;28;20143;-71
2023/05/12 09:28:21;;;;;;;4.10;3.80;;;;;;;16.37;78.01;100088.34;10139490;28;20518;-71
2023/05/12 09:33:24;;;;;;;2.92;2.72;;;;;;;16.54;77.48;100071.25;10132768;29;20070;-72
2023/05/12 09:38:25;;;;;;;3.47;2.97;;;;;;;16.72;76.28;100072.91;10138403;28;20051;-70
2023/05/12 09:43:27;;;;;;;5.13;3.00;;;;;;;16.84;74.85;100068.88;10137984;28;20356;-71
2023/05/12 09:48:28;;;;;;;3.38;2.85;;;;;;;17.04;74.40;100065.88;10139280;28;20340;-71
2023/05/12 09:53:30;;;;;;;3.67;2.72;;;;;;;17.16;73.00;100071.75;10139768;28;21495;-71
2023/05/12 09:58:32;;;;;;;3.17;2.50;;;;;;;17.23;72.71;100068.19;10140997;28;20507;-71
2023/05/12 10:03:36;;;;;;;3.15;2.60;;;;;;;17.35;72.72;100082.13;10135502;28;20056;-71
2023/05/12 10:08:45;;;;;;;3.45;2.63;;;;;;;17.36;72.64;100083.81;10136148;28;20067;-71
2023/05/12 10:13:47;;;;;;;3.03;2.67;;;;;;;17.22;71.29;100082.66;10132405;28;20047;-72
2023/05/12 10:18:49;;;;;;;3.95;3.00;;;;;;;17.12;72.83;100076.63;10142453;28;20062;-71
2023/05/12 10:23:52;;;;;;;3.10;2.80;;;;;;;17.13;71.40;100075.63;10134762;28;20851;-75
2023/05/12 10:28:54;;;;;;;5.60;3.27;;;;;;;17.20;71.56;100084.66;10134814;28;20114;-71
2023/05/12 10:33:57;;;;;;;3.13;2.47;;;;;;;17.13;69.98;100086.38;10139121;28;20508;-72
2023/05/12 10:39:05;;;;;;;5.67;2.40;;;;;;;17.14;67.99;100079.97;10138054;28;20047;-72
2023/05/12 10:44:09;;;;;;;3.58;2.67;;;;;;;17.08;68.92;100081.53;10139302;28;20082;-70
2023/05/12 10:49:11;;;;;;;2.72;2.50;;;;;;;17.02;69.66;100078.66;10140136;28;20462;-72
2023/05/12 10:54:24;;;;;;;4.82;2.70;;;;;;;17.04;71.80;100082.88;10138785;28;20137;-71
2023/05/12 10:59:26;;;;;;;4.10;2.80;;;;;;;16.99;76.13;100081.69;10140833;28;20150;-71
2023/05/12 11:04:45;;;;;;;3.75;3.45;;;;;;;17.06;77.32;100088.06;10139004;28;20052;-71
2023/05/12 11:09:49;;;;;;;4.40;3.08;;;;;;;17.03;78.49;100096.47;10106844;28;1051428;-71
2023/05/12 11:15:00;;;;;;;4.22;3.83;;;;;;;17.09;79.10;100093.94;10135061;28;20052;-70
2023/05/12 11:20:02;;;;;;;4.70;3.15;;;;;;;17.10;80.63;100092.09;10141905;28;20056;-70
2023/05/12 11:25:11;;;;;;;4.78;3.70;;;;;;;17.18;81.92;100093.94;10145059;28;20059;-72
2023/05/12 11:30:12;;;;;;;4.15;3.75;;;;;;;17.21;82.22;100089.03;10148803;28;20048;-71
2023/05/12 11:35:16;;;;;;;4.13;3.72;;;;;;;17.23;81.27;100096.94;10145780;28;20051;-71
2023/05/12 11:40:20;;;;;;;3.60;3.00;;;;;;;17.27;80.18;100109.88;10142461;29;20056;-72
2023/05/12 11:45:28;;;;;;;3.17;2.80;;;;;;;17.25;75.84;100111.91;10149630;28;20055;-72
2023/05/12 11:50:29;;;;;;;1.88;1.50;;;;;;;17.19;72.19;100109.91;10159714;28;20889;-71
2023/05/12 11:55:32;;;;;;;1.33;1.20;;;;;;;17.11;69.02;100109.91;10146311;28;20191;-70
2023/05/12 12:00:34;;;;;;;1.83;1.33;;;;;;;17.04;67.69;100119.66;10149059;28;20043;-74
2023/05/12 12:05:36;;;;;;;2.72;1.73;;;;;;;16.89;69.05;100133.78;10143839;28;20054;-72
2023/05/12 12:10:42;;;;;;;3.15;2.17;;;;;;;16.80;69.88;100129.38;10147805;28;20056;-71
2023/05/12 12:15:43;;;;;;;2.63;1.42;;;;;;;16.84;72.64;100129.88;10147823;28;20052;-72
2023/05/12 12:20:45;;;;;;;2.17;1.98;;;;;;;16.88;74.62;100125.88;10151381;28;20050;-72
2023/05/12 12:25:47;;;;;;;2.22;2.03;;;;;;;16.96;74.66;100118.66;10149534;28;20489;-72
2023/05/12 12:30:49;;;;;;;2.30;2.10;;;;;;;17.07;75.82;100116.63;10144360;28;20616;-74
2023/05/12 12:35:51;;;;;;;4.22;1.90;;;;;;;17.17;75.84;100117.28;10128838;28;20514;-73
2023/05/12 12:40:52;;;;;;;3.05;1.92;;;;;;;17.28;74.37;100121.50;10142246;28;20683;-73
2023/05/12 12:45:53;;;;;;;2.25;1.88;;;;;;;17.43;74.02;100125.16;10143111;28;20040;-73
2023/05/12 12:50:55;;;;;;;2.55;1.65;;;;;;;17.44;70.48;100120.63;10155845;28;20214;-71
2023/05/12 12:55:56;;;;;;;4.13;1.58;;;;;;;17.50;68.96;100119.91;10137376;28;20067;-71
2023/05/12 13:00:58;;;;;;;3.78;1.38;;;;;;;17.55;70.15;100128.34;10142739;28;20079;-72
2023/05/12 13:05:59;;;;;;;2.90;1.35;;;;;;;17.61;70.93;100122.25;10142686;28;20471;-73
2023/05/12 13:11:00;;;;;;;2.03;1.90;;;;;;;17.66;72.27;100119.88;10142428;28;20063;-72
2023/05/12 13:16:03;;;;;;;3.05;1.45;;;;;;;17.70;70.57;100120.38;10142372;28;20059;-71
2023/05/12 13:21:04;;;;;;;2.08;1.40;;;;;;;17.75;67.25;100109.09;10140944;28;20145;-71
2023/05/12 13:26:06;;;;;;;1.67;1.25;;;;;;;17.81;67.84;100111.91;10139491;28;20059;-73
2023/05/12 13:31:07;;;;;;;1.98;1.73;;;;;;;17.89;67.63;100112.91;10140610;28;20094;-71
2023/05/12 13:36:09;;;;;;;2.22;1.05;;;;;;;17.91;67.20;100109.06;10142469;28;20726;-70
2023/05/12 13:41:10;;;;;;;2.92;1.20;;;;;;;17.97;66.51;100113.75;10142479;28;20138;-70
2023/05/12 13:46:12;;;;;;;1.98;1.48;;;;;;;18.02;66.95;100108.66;10139068;28;20062;-70
2023/05/12 13:51:13;;;;;;;3.00;1.58;;;;;;;18.04;68.14;100107.66;10141972;28;21361;-72
2023/05/12 13:56:17;;;;;;;2.85;1.80;;;;;;;18.07;67.98;100118.91;10147594;28;20174;-70
2023/05/12 14:01:19;;;;;;;2.17;1.80;;;;;;;18.00;67.02;100105.31;10137012;28;20948;-71
2023/05/12 14:06:21;;;;;;;2.95;1.52;;;;;;;18.03;67.27;100120.28;10141535;28;20222;-72
2023/05/12 14:11:22;;;;;;;3.13;1.45;;;;;;;18.04;66.49;100121.13;10140666;28;20052;-72
2023/05/12 14:16:24;;;;;;;2.25;1.58;;;;;;;18.12;65.28;100121.06;10139185;28;20060;-72
2023/05/12 14:21:25;;;;;;;3.28;1.80;;;;;;;18.20;65.81;100121.03;10138602;29;20158;-70
2023/05/12 14:26:27;;;;;;;3.38;2.17;;;;;;;18.35;63.57;100127.34;10137145;28;20569;-71
2023/05/12 14:31:28;;;;;;;1.83;1.45;;;;;;;18.43;63.62;100122.94;10136729;28;20431;-72
2023/05/12 14:36:30;;;;;;;1.70;1.42;;;;;;;18.52;61.87;100124.56;10137220;29;20056;-72
2023/05/12 14:41:31;;;;;;;2.63;1.90;;;;;;;18.65;59.99;100124.81;10135295;28;20047;-73
2023/05/12 14:46:33;;;;;;;2.03;1.40;;;;;;;18.72;59.32;100117.69;10138149;28;20562;-71
2023/05/12 14:51:34;;;;;;;4.53;1.58;;;;;;;18.85;59.77;100129.72;10141380;28;20395;-72
2023/05/12 14:56:35;;;;;;;2.30;1.10;;;;;;;18.88;54.19;100123.97;10137950;28;20573;-73
2023/05/12 15:01:37;;;;;;;1.00;0.90;;;;;;;18.88;54.21;100130.22;10138921;28;20593;-71
2023/05/12 15:06:38;;;;;;;1.70;0.82;;;;;;;18.88;56.03;100123.97;10142448;28;20075;-71
2023/05/12 15:11:44;;;;;;;2.00;1.20;;;;;;;18.96;54.31;100126.63;10143264;28;20063;-74
2023/05/12 15:16:45;;;;;;;2.45;1.38;;;;;;;18.79;53.56;100125.88;10144532;28;20060;-72
2023/05/12 15:21:47;;;;;;;1.88;1.50;;;;;;;18.61;56.91;100123.47;10137094;28;20104;-72
2023/05/12 15:26:48;;;;;;;1.50;1.05;;;;;;;18.50;56.83;100123.91;10140066;28;20081;-73
2023/05/12 15:31:50;;;;;;;3.13;1.23;;;;;;;18.49;56.48;100130.31;10155782;28;20059;-73
2023/05/12 15:36:52;;;;;;;3.13;1.42;;;;;;;18.43;57.75;100144.50;10140338;28;20135;-71
2023/05/12 15:41:53;;;;;;;1.40;1.30;;;;;;;18.37;58.07;100136.13;10136765;28;20392;-73
2023/05/12 15:46:54;;;;;;;1.70;1.25;;;;;;;18.32;59.27;100141.19;10141296;28;20181;-73
2023/05/12 15:51:56;;;;;;;2.45;1.40;;;;;;;18.36;59.31;100147.91;10141296;28;20071;-69
2023/05/12 15:56:57;;;;;;;1.70;1.25;;;;;;;18.45;60.88;100147.84;10143717;28;20064;-70
2023/05/12 16:01:59;;;;;;;2.88;1.17;;;;;;;18.46;59.90;100149.53;10134530;28;20055;-71
2023/05/12 16:07:01;;;;;;;2.75;1.50;;;;;;;18.41;59.59;100151.94;10140735;28;20079;-71
2023/05/12 16:12:03;;;;;;;2.85;1.33;;;;;;;18.45;59.84;100162.16;10136647;28;20127;-70
2023/05/12 16:17:07;;;;;;;2.28;1.40;;;;;;;18.51;61.32;100163.28;10138164;28;20131;-73
2023/05/12 16:22:08;;;;;;;4.38;1.70;;;;;;;18.47;60.83;100164.69;10136227;28;20067;-70
2023/05/12 16:27:10;;;;;;;1.50;1.33;;;;;;;18.41;62.16;100166.22;10144481;28;21280;-69
2023/05/12 16:32:11;;;;;;;2.80;1.60;;;;;;;18.35;61.63;100173.16;10138254;29;20079;-71
2023/05/12 16:37:13;;;;;;;1.90;1.42;;;;;;;18.27;62.28;100165.13;10143295;28;20115;-70
2023/05/12 16:42:14;;;;;;;3.30;1.23;;;;;;;18.25;62.58;100171.69;10145243;28;20077;-68
2023/05/12 16:47:16;;;;;;;2.05;1.83;;;;;;;18.19;62.29;100178.63;10146499;28;20495;-70
2023/05/12 16:52:18;;;;;;;1.33;1.23;;;;;;;18.16;62.56;100178.97;10146262;28;20055;-68
2023/05/12 16:57:19;;;;;;;2.00;1.55;;;;;;;18.11;62.37;100175.97;10148681;28;20055;-70
2023/05/12 17:02:21;;;;;;;3.10;1.42;;;;;;;18.00;62.99;100175.34;10146183;28;20403;-70
2023/05/12 17:07:22;;;;;;;1.58;1.48;;;;;;;17.92;62.78;100182.59;10153028;28;20087;-69
2023/05/12 17:12:24;;;;;;;2.45;1.45;;;;;;;17.89;63.73;100186.47;10152355;28;20514;-68
2023/05/12 17:17:25;;;;;;;1.42;1.30;;;;;;;17.93;63.47;100200.44;10148944;28;20048;-69
2023/05/12 17:22:27;;;;;;;1.73;1.58;;;;;;;17.85;63.62;100199.41;10147523;28;20246;-70
2023/05/12 17:27:29;;;;;;;1.98;1.77;;;;;;;17.71;63.76;100189.34;10149139;28;20119;-70
2023/05/12 17:32:30;;;;;;;3.10;1.98;;;;;;;17.69;64.56;100193.25;10152881;28;20586;-70
2023/05/12 17:37:33;;;;;;;1.88;1.65;;;;;;;17.66;64.52;100187.16;10151324;28;20116;-70
2023/05/12 17:42:34;;;;;;;1.60;1.50;;;;;;;17.66;64.15;100197.94;10150114;28;20056;-70
2023/05/12 17:47:35;;;;;;;3.80;1.45;;;;;;;17.60;64.55;100195.94;10151387;28;20056;-70
2023/05/12 17:52:37;;;;;;;2.13;1.35;;;;;;;17.48;65.06;100191.91;10145803;28;20123;-69
2023/05/12 17:57:39;;;;;;;1.52;1.35;;;;;;;17.49;64.85;100199.00;10146667;28;20078;-71
2023/05/12 18:02:40;;;;;;;2.85;2.53;;;;;;;17.46;64.80;100200.16;10150391;28;20056;-71
2023/05/12 18:07:42;;;;;;;2.00;1.90;;;;;;;17.41;66.23;100201.66;10144803;28;20193;-70
2023/05/12 18:12:43;;;;;;;3.30;1.58;;;;;;;17.43;66.13;100216.66;10143706;28;20062;-70
2023/05/12 18:17:45;;;;;;;4.55;1.42;;;;;;;17.42;66.50;100217.66;10146709;28;20060;-70
2023/05/12 18:22:47;;;;;;;1.90;1.67;;;;;;;17.39;66.57;100225.22;10153607;28;20060;-70
2023/05/12 18:27:48;;;;;;;2.65;1.70;;;;;;;17.39;67.01;100238.69;10145546;28;20064;-70
2023/05/12 18:32:50;;;;;;;2.17;1.95;;;;;;;17.39;67.56;100241.38;10147322;28;20062;-72
2023/05/12 18:37:52;;;;;;;4.60;2.28;;;;;;;17.33;67.69;100242.88;10146041;28;20048;-71
2023/05/12 18:42:53;;;;;;;3.05;2.38;;;;;;;17.30;68.08;100244.03;10147535;28;20047;-72
2023/05/12 18:47:54;;;;;;;3.20;2.67;;;;;;;17.27;68.19;100244.38;10148518;28;20483;-70
2023/05/12 18:52:56;;;;;;;3.08;2.78;;;;;;;17.29;68.73;100253.16;10148228;28;20514;-71
2023/05/12 18:57:57;;;;;;;5.50;2.63;;;;;;;17.29;67.98;100266.59;10162656;28;20207;-69
2023/05/12 19:02:59;;;;;;;2.92;2.55;;;;;;;17.27;69.17;100265.91;10146589;28;20296;-69
2023/05/12 19:08:00;;;;;;;3.90;3.08;;;;;;;17.28;69.72;100264.91;10143351;28;20052;-70
2023/05/12 19:13:02;;;;;;;4.93;3.33;;;;;;;17.29;69.76;100271.97;10150683;28;20447;-68
2023/05/12 19:18:04;;;;;;;2.90;2.63;;;;;;;17.22;70.09;100287.09;10147480;28;20063;-70
2023/05/12 19:23:05;;;;;;;4.30;2.63;;;;;;;17.20;69.16;100291.78;10135347;28;20059;-70
2023/05/12 19:28:09;;;;;;;5.13;3.60;;;;;;;17.18;68.98;100290.28;10141271;28;20047;-69
2023/05/12 19:33:11;;;;;;;4.80;3.27;;;;;;;17.08;68.47;100296.66;10139470;28;20059;-70
2023/05/12 19:38:17;;;;;;;3.78;3.42;;;;;;;17.06;67.52;100305.88;10140194;28;20387;-70
2023/05/12 19:43:18;;;;;;;3.00;2.63;;;;;;;16.96;67.65;100287.19;10149383;28;20421;-69
2023/05/12 19:48:20;;;;;;;3.08;2.88;;;;;;;16.89;68.98;100295.09;10150402;28;20419;-70
2023/05/12 19:53:21;;;;;;;3.30;3.00;;;;;;;16.78;69.84;100285.44;10146431;28;20059;-72
2023/05/12 19:58:23;;;;;;;4.60;3.58;;;;;;;16.75;69.97;100298.34;10142740;28;20154;-71
2023/05/12 20:03:25;;;;;;;6.85;4.47;;;;;;;16.53;70.13;100299.78;10148386;28;20055;-73
2023/05/12 20:08:27;;;;;;;4.93;4.10;;;;;;;16.43;71.51;100284.63;10176163;28;20815;-70
2023/05/12 20:13:29;;;;;;;4.82;3.88;;;;;;;16.45;70.80;100303.28;10152089;28;20414;-72
2023/05/12 20:18:31;;;;;;;5.68;4.05;;;;;;;15.98;71.43;100301.84;10151383;28;20048;-72
2023/05/12 20:23:33;;;;;;;4.45;3.60;;;;;;;16.04;70.55;100305.72;10148228;28;20326;-75
2023/05/12 20:28:35;;;;;;;6.82;3.78;;;;;;;16.13;70.41;100310.16;10158633;28;20062;-75
2023/05/12 20:33:36;;;;;;;5.63;4.18;;;;;;;16.08;70.48;100297.22;10173132;29;20052;-76
2023/05/12 20:38:38;;;;;;;4.30;4.00;;;;;;;15.99;71.00;100318.78;10173496;23;20035;-66
2023/05/12 20:43:40;;;;;;;4.00;3.65;;;;;;;15.97;69.20;100315.41;10169582;28;20503;-66
2023/05/12 20:48:41;;;;;;;4.13;3.72;;;;;;;15.99;68.85;100308.91;10177658;28;20057;-68
2023/05/12 20:53:43;;;;;;;5.45;3.60;;;;;;;15.86;67.75;100301.25;10185224;28;20047;-65
2023/05/12 20:58:44;;;;;;;3.72;3.42;;;;;;;15.84;68.17;100300.56;10168449;28;20066;-66
2023/05/12 21:03:46;;;;;;;7.07;3.25;;;;;;;15.86;67.30;100320.03;10182821;28;20124;-65
2023/05/12 21:08:48;;;;;;;5.80;4.50;;;;;;;15.85;67.74;100318.38;10177534;28;20733;-65
2023/05/12 21:13:49;;;;;;;4.80;3.63;;;;;;;15.79;66.75;100308.22;10155225;28;20051;-66
2023/05/12 21:18:51;;;;;;;3.97;3.65;;;;;;;15.78;66.15;100319.97;10171844;28;20058;-65
2023/05/12 21:23:52;;;;;;;3.33;3.13;;;;;;;15.72;66.98;100320.59;10177383;28;20051;-65
2023/05/12 21:28:54;;;;;;;4.97;3.40;;;;;;;15.60;66.74;100311.94;10181797;28;20063;-67
2023/05/12 21:33:56;;;;;;;6.38;3.40;;;;;;;15.67;66.87;100331.78;10188111;28;20778;-66
2023/05/12 21:38:58;;;;;;;4.07;3.38;;;;;;;15.54;66.89;100321.44;10181698;28;20424;-66
2023/05/12 21:44:00;;;;;;;4.70;2.97;;;;;;;15.59;66.66;100333.53;10183791;28;20062;-65
2023/05/12 21:49:01;;;;;;;3.70;3.35;;;;;;;15.54;66.74;100329.47;10178782;28;20468;-66
2023/05/12 21:54:03;;;;;;;3.85;3.25;;;;;;;15.45;67.50;100325.03;10180248;28;20051;-66
2023/05/12 21:59:04;;;;;;;3.67;3.38;;;;;;;15.49;66.47;100334.47;10178942;28;20070;-66
2023/05/12 22:04:05;;;;;;;3.67;3.33;;;;;;;15.40;67.15;100335.38;10176966;28;20051;-65
2023/05/12 22:09:08;;;;;;;4.90;3.35;;;;;;;15.41;67.23;100333.53;10179911;28;20077;-65
2023/05/12 22:14:10;;;;;;;6.43;5.82;;;;;;;15.37;67.52;100346.41;10177746;28;20138;-65
2023/05/12 22:19:11;;;;;;;3.65;3.35;;;;;;;15.35;67.71;100345.72;10182461;28;20137;-66
2023/05/12 22:24:13;;;;;;;4.25;3.83;;;;;;;15.24;67.51;100329.84;10176130;28;20415;-66
2023/05/12 22:29:15;;;;;;;3.95;3.25;;;;;;;15.24;67.65;100341.44;10176070;28;20059;-67
2023/05/12 22:34:16;;;;;;;4.32;3.90;;;;;;;15.27;68.30;100359.06;10176755;28;20070;-65
2023/05/12 22:39:18;;;;;;;4.45;3.80;;;;;;;15.24;68.30;100367.38;10178206;28;20051;-66
2023/05/12 22:44:20;;;;;;;5.25;3.70;;;;;;;15.20;68.25;100370.38;10176418;28;20149;-65
2023/05/12 22:49:21;;;;;;;3.78;3.47;;;;;;;15.18;68.05;100368.84;10182219;28;20066;-66
2023/05/12 22:54:24;;;;;;;3.75;3.45;;;;;;;15.09;67.58;100349.16;10175357;28;20055;-66
2023/05/12 22:59:26;;;;;;;3.95;3.55;;;;;;;15.15;67.60;100372.66;10170330;28;20057;-65
2023/05/12 23:04:27;;;;;;;4.28;3.60;;;;;;;15.12;68.40;100383.69;10187144;28;20696;-65
2023/05/12 23:09:30;;;;;;;3.65;3.35;;;;;;;15.18;67.50;100404.53;10210925;28;20051;-66
2023/05/12 23:14:32;;;;;;;3.88;3.58;;;;;;;15.07;67.90;100388.63;10200724;28;20221;-65